Time;durP1;ratioP1;P1;durP2;ratioP2;P2;SDS_P1;SDS_P2;PMS_P1;PMS_P2;Temp;Humidity;BMP_temperature;BMP_pressure;BME280_temperature;BME280_humidity;BME280_pressure;Samples;Min_cycle;Max_cycle;Signal;HPM_P1;HPM_P2
2023/06/23 00:00:22;;;;;;;32.63;20.30;;;;;;;-146.58;100.00;69501.63;5029974;28;20124;-66
2023/06/23 00:02:48;;;;;;;28.25;19.05;;;;;;;-146.58;100.00;69501.63;5030275;28;20057;-65
2023/06/23 00:05:14;;;;;;;23.38;16.45;;;;;;;-146.58;100.00;69501.63;5029602;28;20045;-66
2023/06/23 00:07:39;;;;;;;26.27;19.65;;;;;;;-146.58;100.00;69501.63;5031139;28;20052;-66
2023/06/23 00:10:06;;;;;;;23.15;16.77;;;;;;;-146.58;100.00;69501.63;5029049;28;20038;-66
2023/06/23 00:12:35;;;;;;;22.60;19.48;;;;;;;-146.58;100.00;69501.63;5030960;28;20049;-66
2023/06/23 00:15:07;;;;;;;23.42;17.05;;;;;;;-146.58;100.00;69501.63;5029199;28;20528;-66
2023/06/23 00:17:32;;;;;;;23.58;17.58;;;;;;;-146.58;100.00;69501.63;5030699;28;20025;-65
2023/06/23 00:19:57;;;;;;;23.42;16.17;;;;;;;-146.58;100.00;69501.63;5029213;28;20064;-66
2023/06/23 00:22:23;;;;;;;21.75;15.68;;;;;;;-146.58;100.00;69501.63;5030913;28;20028;-65
2023/06/23 00:24:48;;;;;;;36.58;19.00;;;;;;;-146.58;100.00;69501.63;5028535;28;20041;-66
2023/06/23 00:27:14;;;;;;;24.60;16.45;;;;;;;-146.58;100.00;69501.63;5030947;28;20033;-66
2023/06/23 00:29:39;;;;;;;21.33;17.48;;;;;;;-146.58;100.00;69501.63;5029418;28;20038;-65
2023/06/23 00:32:05;;;;;;;22.88;16.75;;;;;;;-146.58;100.00;69501.63;5030035;28;20029;-65
2023/06/23 00:34:30;;;;;;;28.50;18.98;;;;;;;-146.58;100.00;69501.63;5029131;28;20128;-66
2023/06/23 00:36:55;;;;;;;27.08;18.00;;;;;;;-146.58;100.00;69501.63;5030476;28;20013;-65
2023/06/23 00:39:22;;;;;;;27.23;18.00;;;;;;;-146.58;100.00;69501.63;5029009;28;20056;-65
2023/06/23 00:41:48;;;;;;;23.35;17.33;;;;;;;-146.58;100.00;69501.63;5030484;28;20031;-64
2023/06/23 00:44:14;;;;;;;24.30;19.17;;;;;;;-146.58;100.00;69501.63;5032204;28;20040;-64
2023/06/23 00:46:43;;;;;;;24.23;18.55;;;;;;;-146.58;100.00;69501.63;5034382;28;20017;-63
2023/06/23 00:49:09;;;;;;;28.52;18.23;;;;;;;-146.58;100.00;69501.63;5033382;28;20034;-64
2023/06/23 00:51:34;;;;;;;26.75;20.00;;;;;;;-146.58;100.00;69501.63;5034728;28;20025;-65
2023/06/23 00:54:00;;;;;;;27.55;18.85;;;;;;;-146.58;100.00;69501.63;5032505;28;20034;-64
2023/06/23 00:56:27;;;;;;;25.90;18.23;;;;;;;-146.58;100.00;69501.63;5034273;28;20033;-65
2023/06/23 00:58:54;;;;;;;24.35;16.85;;;;;;;-146.58;100.00;69501.63;5032876;28;20041;-64
2023/06/23 01:01:20;;;;;;;29.00;18.50;;;;;;;-146.58;100.00;69501.63;5034153;28;20462;-64
2023/06/23 01:03:45;;;;;;;23.90;18.08;;;;;;;-146.58;100.00;69501.63;5032478;28;20073;-64
2023/06/23 01:06:28;;;;;;;25.25;17.25;;;;;;;-146.58;100.00;69501.63;5034411;28;20048;-64
2023/06/23 01:09:05;;;;;;;25.23;19.67;;;;;;;-146.58;100.00;69501.63;5032367;28;20041;-64
2023/06/23 01:11:53;;;;;;;25.48;17.88;;;;;;;-146.58;100.00;69501.63;5034404;28;20480;-64
2023/06/23 01:14:27;;;;;;;28.05;20.88;;;;;;;-146.58;100.00;69501.63;5026869;28;20043;-66
2023/06/23 01:17:02;;;;;;;25.58;19.67;;;;;;;-146.58;100.00;69501.63;5033663;28;20028;-67
2023/06/23 01:19:40;;;;;;;26.45;19.55;;;;;;;-146.58;100.00;69501.63;5032500;28;20041;-64
2023/06/23 01:22:14;;;;;;;;;;;;;;;-146.58;100.00;69501.63;5034504;28;20021;-64
2023/06/23 01:25:01;;;;;;;27.83;18.23;;;;;;;-146.58;100.00;69501.63;5032291;28;20347;-64
2023/06/23 01:27:28;;;;;;;26.92;18.30;;;;;;;-146.58;100.00;69501.63;5034115;28;20124;-64
2023/06/23 01:29:55;;;;;;;29.75;20.90;;;;;;;-146.58;100.00;69501.63;5032005;28;20065;-64
2023/06/23 01:32:34;;;;;;;33.80;21.23;;;;;;;-146.58;100.00;69501.63;5033694;28;20495;-64
2023/06/23 01:35:05;;;;;;;30.33;20.27;;;;;;;-146.58;100.00;69501.63;5032087;28;20099;-64
2023/06/23 01:37:35;;;;;;;27.90;20.00;;;;;;;-146.58;100.00;69501.63;5033495;28;20572;-64
2023/06/23 01:40:09;;;;;;;28.88;20.23;;;;;;;-146.58;100.00;69501.63;5032224;28;20074;-64
2023/06/23 01:42:38;;;;;;;30.48;20.83;;;;;;;-146.58;100.00;69501.63;5033608;28;20097;-64
2023/06/23 01:45:05;;;;;;;;;;;;;;;-146.58;100.00;69501.63;5032113;28;20095;-64
2023/06/23 01:47:40;;;;;;;24.80;19.17;;;;;;;-146.58;100.00;69501.63;5033518;28;19916;-66
2023/06/23 01:50:08;;;;;;;37.00;21.63;;;;;;;-146.58;100.00;69501.63;5032065;28;20072;-66
2023/06/23 01:52:37;;;;;;;29.65;22.65;;;;;;;-146.58;100.00;69501.63;5033115;28;20029;-65
2023/06/23 01:55:05;;;;;;;29.73;19.80;;;;;;;-146.58;100.00;69501.63;5030230;28;20041;-65
2023/06/23 01:57:33;;;;;;;29.13;19.83;;;;;;;-146.58;100.00;69501.63;5033448;28;20472;-65
2023/06/23 02:00:00;;;;;;;28.67;20.60;;;;;;;-146.58;100.00;69501.63;5031489;28;20129;-66
2023/06/23 02:02:27;;;;;;;31.85;22.15;;;;;;;-146.58;100.00;69501.63;5033127;28;20108;-65
2023/06/23 02:04:55;;;;;;;33.38;21.10;;;;;;;-146.58;100.00;69501.63;5031347;28;20115;-65
2023/06/23 02:07:22;;;;;;;32.08;22.60;;;;;;;-146.58;100.00;69501.63;5032652;28;20044;-66
2023/06/23 02:09:49;;;;;;;29.58;20.52;;;;;;;-146.58;100.00;69501.63;5031479;28;20119;-66
2023/06/23 02:12:15;;;;;;;33.85;22.52;;;;;;;-146.58;100.00;69501.63;5033198;28;20029;-66
2023/06/23 02:14:43;;;;;;;34.38;22.67;;;;;;;-146.58;100.00;69501.63;5031096;28;20042;-65
2023/06/23 02:17:10;;;;;;;28.10;21.55;;;;;;;-146.58;100.00;69501.63;5033032;28;20020;-66
2023/06/23 02:19:38;;;;;;;37.03;21.73;;;;;;;-146.58;100.00;69501.63;5031841;28;20041;-65
2023/06/23 02:22:14;;;;;;;29.63;22.02;;;;;;;-146.58;100.00;69501.63;5032492;28;20056;-64
2023/06/23 02:24:40;;;;;;;34.28;22.75;;;;;;;-146.58;100.00;69501.63;5031029;28;20167;-65
2023/06/23 02:27:07;;;;;;;32.03;22.25;;;;;;;-146.58;100.00;69501.63;5032794;28;20104;-64
2023/06/23 02:29:38;;;;;;;35.53;23.73;;;;;;;-146.58;100.00;69501.63;5031107;28;20041;-64
2023/06/23 02:32:04;;;;;;;34.92;21.55;;;;;;;-146.58;100.00;69501.63;5032564;28;20060;-64
2023/06/23 02:34:30;;;;;;;38.83;25.95;;;;;;;-146.58;100.00;69501.63;5031074;28;20037;-64
2023/06/23 02:37:01;;;;;;;33.97;24.20;;;;;;;-146.58;100.00;69501.63;5032130;28;20032;-64
2023/06/23 02:39:39;;;;;;;34.10;24.48;;;;;;;-146.58;100.00;69501.63;5031251;28;20037;-65
2023/06/23 02:42:06;;;;;;;40.40;23.23;;;;;;;-146.58;100.00;69501.63;5032479;28;20120;-64
2023/06/23 02:44:42;;;;;;;40.28;21.77;;;;;;;-146.58;100.00;69501.63;5030593;28;20048;-64
2023/06/23 02:47:15;;;;;;;34.97;22.63;;;;;;;-146.58;100.00;69501.63;5032290;28;20032;-64
2023/06/23 02:49:42;;;;;;;39.60;23.83;;;;;;;-146.58;100.00;69501.63;5031135;28;20038;-64
2023/06/23 02:52:10;;;;;;;35.42;26.20;;;;;;;-146.58;100.00;69501.63;5031571;28;20090;-64
2023/06/23 02:54:40;;;;;;;33.88;26.30;;;;;;;-146.58;100.00;69501.63;5030738;28;20043;-64
2023/06/23 02:57:12;;;;;;;45.30;24.65;;;;;;;-146.58;100.00;69501.63;5032457;28;20053;-64
2023/06/23 02:59:40;;;;;;;41.13;25.90;;;;;;;-146.58;100.00;69501.63;5030485;28;20042;-64
2023/06/23 03:02:07;;;;;;;48.17;26.33;;;;;;;-146.58;100.00;69501.63;5030811;28;20439;-66
2023/06/23 03:04:34;;;;;;;45.22;26.95;;;;;;;-146.58;100.00;69501.63;5030559;28;20133;-66
2023/06/23 03:07:00;;;;;;;35.22;26.02;;;;;;;-146.58;100.00;69501.63;5030986;28;20026;-66
2023/06/23 03:09:26;;;;;;;42.35;25.83;;;;;;;-146.58;100.00;69501.63;5030760;28;20033;-66
2023/06/23 03:11:52;;;;;;;40.33;25.80;;;;;;;-146.58;100.00;69501.63;5031843;28;20029;-66
2023/06/23 03:14:17;;;;;;;47.80;28.70;;;;;;;-146.58;100.00;69501.63;5029980;28;20046;-67
2023/06/23 03:17:02;;;;;;;44.17;28.40;;;;;;;-146.58;100.00;69501.63;5031952;28;20021;-66
2023/06/23 03:19:38;;;;;;;39.05;25.73;;;;;;;-146.58;100.00;69501.63;5030550;28;20067;-67
2023/06/23 03:22:22;;;;;;;40.13;28.35;;;;;;;-146.58;100.00;69501.63;5031311;28;20843;-65
2023/06/23 03:24:52;;;;;;;37.95;28.05;;;;;;;-146.58;100.00;69501.63;5029821;28;20053;-64
2023/06/23 03:27:21;;;;;;;47.15;30.10;;;;;;;-146.58;100.00;69501.63;5031681;28;20108;-64
2023/06/23 03:29:52;;;;;;;50.80;30.50;;;;;;;-146.58;100.00;69501.63;5028270;28;20120;-64
2023/06/23 03:32:25;;;;;;;49.65;27.65;;;;;;;-146.58;100.00;69501.63;5031722;28;20033;-64
2023/06/23 03:34:58;;;;;;;43.08;29.55;;;;;;;-146.58;100.00;69501.63;5029676;28;20061;-64
2023/06/23 03:37:27;;;;;;;57.35;31.73;;;;;;;-146.58;100.00;69501.63;5031145;28;20040;-65
2023/06/23 03:39:57;;;;;;;48.45;32.13;;;;;;;-146.58;100.00;69501.63;5029956;28;20049;-65
2023/06/23 03:42:23;;;;;;;52.28;32.83;;;;;;;-146.58;100.00;69501.63;5031507;28;20025;-65
2023/06/23 03:44:51;;;;;;;50.42;29.63;;;;;;;-146.58;100.00;69501.63;5029403;28;20057;-65
2023/06/23 03:47:20;;;;;;;57.10;35.72;;;;;;;-146.58;100.00;69501.63;5031594;28;20084;-65
2023/06/23 03:49:51;;;;;;;47.38;32.70;;;;;;;-146.58;100.00;69501.63;5029580;28;20037;-66
2023/06/23 03:52:17;;;;;;;61.83;34.85;;;;;;;-146.58;100.00;69501.63;5030875;28;20032;-65
2023/06/23 03:54:44;;;;;;;57.13;34.85;;;;;;;-146.58;100.00;69501.63;5029713;28;20053;-65
2023/06/23 03:57:16;;;;;;;50.72;32.42;;;;;;;-146.58;100.00;69501.63;5031144;28;20075;-65
2023/06/23 03:59:43;;;;;;;49.92;35.78;;;;;;;-146.58;100.00;69501.63;5029660;28;20523;-65
2023/06/23 04:02:11;;;;;;;52.90;32.17;;;;;;;-146.58;100.00;69501.63;5030464;28;20017;-65
2023/06/23 04:04:39;;;;;;;51.83;33.22;;;;;;;-146.58;100.00;69501.63;5029655;28;20056;-64
2023/06/23 04:07:08;;;;;;;55.55;32.28;;;;;;;-146.58;100.00;69501.63;5030429;28;20033;-65
2023/06/23 04:09:34;;;;;;;54.60;33.38;;;;;;;-146.58;100.00;69501.63;5029642;28;20414;-65
2023/06/23 04:12:01;;;;;;;55.20;34.25;;;;;;;-146.58;100.00;69501.63;5030682;28;20017;-65
2023/06/23 04:14:28;;;;;;;57.95;35.60;;;;;;;-146.58;100.00;69501.63;5027383;28;20053;-65
2023/06/23 04:16:54;;;;;;;49.67;34.45;;;;;;;-146.58;100.00;69501.63;5029799;28;20060;-64
2023/06/23 04:19:27;;;;;;;46.28;32.90;;;;;;;-146.58;100.00;69501.63;5028701;28;20715;-66
2023/06/23 04:21:53;;;;;;;50.55;32.97;;;;;;;-146.58;100.00;69501.63;5029381;28;20029;-65
2023/06/23 04:24:21;;;;;;;46.97;32.05;;;;;;;-146.58;100.00;69501.63;5028894;28;20531;-64
2023/06/23 04:26:50;;;;;;;45.53;29.90;;;;;;;-146.58;100.00;69501.63;5029814;28;20025;-64
2023/06/23 04:29:19;;;;;;;51.83;32.13;;;;;;;-146.58;100.00;69501.63;5029106;28;20057;-64
2023/06/23 04:31:48;;;;;;;55.88;33.35;;;;;;;-146.58;100.00;69501.63;5030513;28;20116;-66
2023/06/23 04:34:13;;;;;;;57.13;34.42;;;;;;;-146.58;100.00;69501.63;5029376;28;20503;-66
2023/06/23 04:36:52;;;;;;;65.10;37.95;;;;;;;-146.58;100.00;69501.63;5030008;28;20063;-68
2023/06/23 04:39:27;;;;;;;72.18;37.88;;;;;;;-146.58;100.00;69501.63;5029420;28;20419;-66
2023/06/23 04:41:59;;;;;;;48.55;31.70;;;;;;;-146.58;100.00;69501.63;5030396;28;20044;-67
2023/06/23 04:44:27;;;;;;;49.42;31.70;;;;;;;-146.58;100.00;69501.63;5029103;28;20086;-67
2023/06/23 04:46:54;;;;;;;;;;;;;;;-146.58;100.00;69501.63;5030728;28;20025;-66
2023/06/23 04:49:23;;;;;;;60.35;32.28;;;;;;;-146.58;100.00;69501.63;5029276;28;20015;-66
2023/06/23 04:51:53;;;;;;;49.40;33.15;;;;;;;-146.58;100.00;69501.63;5030033;28;20032;-65
2023/06/23 04:54:22;;;;;;;53.08;33.80;;;;;;;-146.58;100.00;69501.63;5029011;28;20049;-65
2023/06/23 04:56:50;;;;;;;59.90;34.15;;;;;;;-146.58;100.00;69501.63;5030269;28;20495;-65
2023/06/23 04:59:20;;;;;;;58.72;34.40;;;;;;;-146.58;100.00;69501.63;5029075;28;20041;-65
2023/06/23 05:01:46;;;;;;;62.90;35.65;;;;;;;-146.58;100.00;69501.63;5028898;28;20029;-65
2023/06/23 05:04:14;;;;;;;52.13;32.75;;;;;;;-146.58;100.00;69501.63;5029061;28;20052;-65
2023/06/23 05:06:42;;;;;;;65.30;36.75;;;;;;;-146.58;100.00;69501.63;5030290;28;20037;-61
2023/06/23 05:09:10;;;;;;;66.82;37.78;;;;;;;-146.58;100.00;69501.63;5028857;28;20037;-61
2023/06/23 05:11:37;;;;;;;58.65;37.30;;;;;;;-146.58;100.00;69501.63;5030451;28;20029;-62
2023/06/23 05:14:04;;;;;;;65.55;38.92;;;;;;;-146.58;100.00;69501.63;5028352;28;20042;-62
2023/06/23 05:16:32;;;;;;;67.95;37.10;;;;;;;-146.58;100.00;69501.63;5030605;28;20056;-62
2023/06/23 05:18:59;;;;;;;60.35;36.38;;;;;;;-146.58;100.00;69501.63;5028894;28;20041;-62
2023/06/23 05:21:27;;;;;;;59.40;37.28;;;;;;;-146.58;100.00;69501.63;5028917;28;20438;-62
2023/06/23 05:23:54;;;;;;;63.15;36.65;;;;;;;-146.58;100.00;69501.63;5028877;28;20044;-62
2023/06/23 05:26:22;;;;;;;55.03;36.88;;;;;;;-146.58;100.00;69501.63;5030291;28;20556;-62
2023/06/23 05:28:49;;;;;;;66.50;36.72;;;;;;;-146.58;100.00;69501.63;5029049;28;20034;-62
2023/06/23 05:31:16;;;;;;;59.00;38.80;;;;;;;-146.58;100.00;69501.63;5033917;28;20061;-62
2023/06/23 05:33:44;;;;;;;59.00;37.15;;;;;;;-146.58;100.00;69501.63;5032258;28;20040;-62
2023/06/23 05:36:11;;;;;;;;;;;;;;;-146.58;100.00;69501.63;5033722;28;20021;-62
2023/06/23 05:38:38;;;;;;;58.85;38.22;;;;;;;-146.58;100.00;69501.63;5032514;28;20363;-61
2023/06/23 05:41:03;;;;;;;58.75;36.30;;;;;;;-146.58;100.00;69501.63;5033599;28;20029;-62
2023/06/23 05:43:29;;;;;;;68.72;36.13;;;;;;;-146.58;100.00;69501.63;5031896;28;20135;-63
2023/06/23 05:45:56;;;;;;;57.03;35.35;;;;;;;-146.58;100.00;69501.63;5032306;28;20033;-63
2023/06/23 05:48:31;;;;;;;52.17;36.17;;;;;;;-146.58;100.00;69501.63;5031036;28;20038;-63
2023/06/23 05:50:58;;;;;;;54.15;36.35;;;;;;;-146.58;100.00;69501.63;5032213;28;20021;-63
2023/06/23 05:53:25;;;;;;;51.22;33.67;;;;;;;-146.58;100.00;69501.63;5030857;28;20061;-63
2023/06/23 05:56:05;;;;;;;40.03;30.52;;;;;;;-146.58;100.00;69501.63;5032259;28;20526;-63
2023/06/23 05:58:38;;;;;;;52.35;35.92;;;;;;;-146.58;100.00;69501.63;5031813;28;20048;-63
2023/06/23 06:01:09;;;;;;;53.75;34.53;;;;;;;-146.58;100.00;69501.63;5033142;28;20161;-63
2023/06/23 06:03:42;;;;;;;61.22;37.95;;;;;;;-146.58;100.00;69501.63;5029791;28;20129;-63
2023/06/23 06:06:08;;;;;;;48.70;32.70;;;;;;;-146.58;100.00;69501.63;5031882;28;20033;-63
2023/06/23 06:08:35;;;;;;;47.72;34.65;;;;;;;-146.58;100.00;69501.63;5031907;28;20077;-63
2023/06/23 06:11:02;;;;;;;46.47;30.40;;;;;;;-146.58;100.00;69501.63;5032382;28;20083;-64
2023/06/23 06:13:32;;;;;;;68.35;32.92;;;;;;;-146.58;100.00;69501.63;5031426;28;20041;-63
2023/06/23 06:15:59;;;;;;;37.28;29.98;;;;;;;-146.58;100.00;69501.63;5032477;28;20014;-63
2023/06/23 06:18:25;;;;;;;41.65;29.40;;;;;;;-146.58;100.00;69501.63;5031219;28;20124;-63
2023/06/23 06:20:52;;;;;;;40.50;29.13;;;;;;;-146.58;100.00;69501.63;5032848;28;20439;-63
2023/06/23 06:23:19;;;;;;;33.77;27.97;;;;;;;-146.58;100.00;69501.63;5031347;28;20040;-63
2023/06/23 06:25:49;;;;;;;35.22;26.08;;;;;;;-146.58;100.00;69501.63;5032075;28;20053;-63
2023/06/23 06:28:16;;;;;;;35.60;27.15;;;;;;;-146.58;100.00;69501.63;5031509;28;20029;-64
2023/06/23 06:30:42;;;;;;;37.13;27.73;;;;;;;-146.58;100.00;69501.63;5032502;28;20073;-63
2023/06/23 06:33:11;;;;;;;38.03;27.63;;;;;;;-146.58;100.00;69501.63;5030598;28;20066;-63
2023/06/23 06:35:39;;;;;;;35.30;26.77;;;;;;;-146.58;100.00;69501.63;5032974;28;20070;-63
2023/06/23 06:38:06;;;;;;;32.13;25.25;;;;;;;-146.58;100.00;69501.63;5031445;28;20108;-63
2023/06/23 06:40:33;;;;;;;38.03;27.38;;;;;;;-146.58;100.00;69501.63;5030857;28;20021;-63
2023/06/23 06:42:59;;;;;;;34.47;26.05;;;;;;;-146.58;100.00;69501.63;5030536;28;20021;-63
2023/06/23 06:45:24;;;;;;;39.58;28.05;;;;;;;-146.58;100.00;69501.63;5032321;28;20033;-63
2023/06/23 06:47:50;;;;;;;32.63;24.55;;;;;;;-146.58;100.00;69501.63;5032049;28;20048;-63
2023/06/23 06:50:18;;;;;;;29.10;23.42;;;;;;;-146.58;100.00;69501.63;5031053;28;20041;-63
2023/06/23 06:52:45;;;;;;;25.90;21.33;;;;;;;-146.58;100.00;69501.63;5032427;28;20401;-63
2023/06/23 06:55:20;;;;;;;26.63;22.65;;;;;;;-146.58;100.00;69501.63;5031079;28;20469;-63
2023/06/23 06:57:47;;;;;;;23.40;20.25;;;;;;;-146.58;100.00;69501.63;5031986;28;20029;-64
2023/06/23 07:00:13;;;;;;;26.77;19.50;;;;;;;-146.58;100.00;69501.63;5031050;28;20408;-63
2023/06/23 07:02:39;;;;;;;26.83;18.90;;;;;;;-146.58;100.00;69501.63;5031792;28;20026;-64
2023/06/23 07:05:05;;;;;;;22.13;19.27;;;;;;;-146.58;100.00;69501.63;5030459;28;20065;-64
2023/06/23 07:07:31;;;;;;;20.77;18.25;;;;;;;-146.58;100.00;69501.63;5031975;28;20018;-63
2023/06/23 07:09:56;;;;;;;20.63;18.52;;;;;;;-146.58;100.00;69501.63;5030733;28;20042;-64
2023/06/23 07:12:23;;;;;;;50.92;18.92;;;;;;;-146.58;100.00;69501.63;5031731;28;20030;-63
2023/06/23 07:14:49;;;;;;;30.70;17.52;;;;;;;-146.58;100.00;69501.63;5030295;28;20030;-64
2023/06/23 07:17:14;;;;;;;31.70;19.75;;;;;;;-146.58;100.00;69501.63;5031822;28;20441;-64
2023/06/23 07:19:40;;;;;;;20.77;17.17;;;;;;;-146.58;100.00;69501.63;5030096;28;20041;-64
2023/06/23 07:22:06;;;;;;;17.27;15.32;;;;;;;-146.58;100.00;69501.63;5031706;28;20029;-64
2023/06/23 07:24:31;;;;;;;18.23;16.30;;;;;;;-146.58;100.00;69501.63;5029268;28;20090;-64
2023/06/23 07:26:56;;;;;;;21.58;15.88;;;;;;;-146.58;100.00;69501.63;5031374;28;20025;-64
2023/06/23 07:29:22;;;;;;;19.42;16.25;;;;;;;-146.58;100.00;69501.63;5030285;28;20497;-64
2023/06/23 07:31:47;;;;;;;22.35;13.10;;;;;;;-146.58;100.00;69501.63;5031320;28;20026;-64
2023/06/23 07:34:12;;;;;;;17.15;13.63;;;;;;;-146.58;100.00;69501.63;5029643;28;20033;-65
2023/06/23 07:36:38;;;;;;;16.88;12.68;;;;;;;-146.58;100.00;69501.63;5031689;28;20026;-64
2023/06/23 07:39:03;;;;;;;18.55;13.48;;;;;;;-146.58;100.00;69501.63;5029980;28;20045;-61
2023/06/23 07:41:29;;;;;;;28.88;14.25;;;;;;;-146.58;100.00;69501.63;5031261;28;20063;-62
2023/06/23 07:43:54;;;;;;;17.38;15.60;;;;;;;-146.58;100.00;69501.63;5026069;28;20018;-62
2023/06/23 07:46:19;;;;;;;15.48;13.63;;;;;;;-146.58;100.00;69501.63;5031127;28;20472;-63
2023/06/23 07:48:45;;;;;;;14.70;12.00;;;;;;;-146.58;100.00;69501.63;5029276;28;20535;-62
2023/06/23 07:51:10;;;;;;;16.17;11.45;;;;;;;-146.58;100.00;69501.63;5031341;28;20469;-63
2023/06/23 07:53:36;;;;;;;14.73;11.30;;;;;;;-146.58;100.00;69501.63;5031081;28;20037;-63
2023/06/23 07:56:02;;;;;;;11.75;10.48;;;;;;;-146.58;100.00;69501.63;5009548;28;20034;-63
2023/06/23 07:58:27;;;;;;;16.52;12.07;;;;;;;-146.58;100.00;69501.63;5011119;28;20028;-63
2023/06/23 08:00:53;;;;;;;13.95;12.45;;;;;;;-146.58;100.00;69501.63;5006355;28;20034;-63
2023/06/23 08:03:19;;;;;;;12.88;11.50;;;;;;;-146.58;100.00;69501.63;5010840;28;20164;-63
2023/06/23 08:05:44;;;;;;;14.15;11.10;;;;;;;-146.58;100.00;69501.63;5009523;28;20041;-63
2023/06/23 08:08:09;;;;;;;16.17;12.95;;;;;;;-146.58;100.00;69501.63;5008040;28;20018;-63
2023/06/23 08:10:35;;;;;;;13.73;12.18;;;;;;;-146.58;100.00;69501.63;5009158;28;20271;-63
2023/06/23 08:13:00;;;;;;;14.95;12.23;;;;;;;-146.58;100.00;69501.63;5010815;28;20030;-63
2023/06/23 08:15:26;;;;;;;12.80;11.55;;;;;;;-146.58;100.00;69501.63;5009766;28;20041;-63
2023/06/23 08:17:51;;;;;;;17.05;14.00;;;;;;;-146.58;100.00;69501.63;5010519;28;20465;-63
2023/06/23 08:20:17;;;;;;;17.20;12.73;;;;;;;-146.58;100.00;69501.63;5009823;28;20136;-63
2023/06/23 08:22:42;;;;;;;24.80;13.55;;;;;;;-146.58;100.00;69501.63;5010908;28;20026;-63
2023/06/23 08:25:08;;;;;;;12.45;11.05;;;;;;;-146.58;100.00;69501.63;5008910;28;20125;-63
2023/06/23 08:27:33;;;;;;;13.32;11.18;;;;;;;-146.58;100.00;69501.63;5010986;28;20037;-63
2023/06/23 08:29:59;;;;;;;11.95;10.18;;;;;;;-146.58;100.00;69501.63;5026169;28;20068;-63
2023/06/23 08:32:24;;;;;;;11.55;10.20;;;;;;;-146.58;100.00;69501.63;5030334;28;20026;-63
2023/06/23 08:34:50;;;;;;;14.10;11.02;;;;;;;-146.58;100.00;69501.63;5028879;28;20384;-64
2023/06/23 08:37:15;;;;;;;11.05;9.85;;;;;;;-146.58;100.00;69501.63;5030554;28;20036;-63
2023/06/23 08:39:41;;;;;;;12.20;10.88;;;;;;;-146.58;100.00;69501.63;5027652;28;20148;-63
2023/06/23 08:42:07;;;;;;;13.15;10.43;;;;;;;-146.58;100.00;69501.63;5030493;28;20021;-63
2023/06/23 08:44:35;;;;;;;13.35;11.98;;;;;;;-146.58;100.00;69501.63;5029196;28;20037;-64
2023/06/23 08:47:04;;;;;;;12.30;9.77;;;;;;;-146.58;100.00;69501.63;5029899;28;20026;-64
2023/06/23 08:49:32;;;;;;;10.30;8.50;;;;;;;-146.58;100.00;69501.63;5029121;28;20095;-63
2023/06/23 08:51:58;;;;;;;12.10;9.18;;;;;;;-146.58;100.00;69501.63;5026367;28;20056;-63
2023/06/23 08:54:25;;;;;;;11.82;9.82;;;;;;;-146.58;100.00;69501.63;5027764;28;20041;-63
2023/06/23 08:56:50;;;;;;;10.82;9.32;;;;;;;-146.58;100.00;69501.63;5028795;28;20027;-64
2023/06/23 08:59:16;;;;;;;12.55;8.68;;;;;;;-146.58;100.00;69501.63;5029089;28;20045;-63
2023/06/23 09:01:42;;;;;;;9.70;8.35;;;;;;;-146.58;100.00;69501.63;5029902;28;20029;-63
2023/06/23 09:04:08;;;;;;;9.65;8.40;;;;;;;-146.58;100.00;69501.63;5029704;28;20053;-63
2023/06/23 09:06:33;;;;;;;11.32;8.55;;;;;;;-146.58;100.00;69501.63;5034143;28;20395;-63
2023/06/23 09:08:59;;;;;;;11.68;7.43;;;;;;;-146.58;100.00;69501.63;5032047;28;20444;-64
2023/06/23 09:11:25;;;;;;;11.45;8.25;;;;;;;-146.58;100.00;69501.63;5033974;28;20026;-64
2023/06/23 09:13:52;;;;;;;8.27;6.07;;;;;;;-146.58;100.00;69501.63;5032366;28;20053;-64
2023/06/23 09:16:18;;;;;;;8.43;7.25;;;;;;;-146.58;100.00;69501.63;5033801;28;20116;-63
2023/06/23 09:18:46;;;;;;;7.97;7.00;;;;;;;-146.58;100.00;69501.63;5031249;28;20540;-64
2023/06/23 09:21:12;;;;;;;14.02;8.35;;;;;;;-146.58;100.00;69501.63;5033950;28;20161;-63
2023/06/23 09:23:38;;;;;;;13.88;8.00;;;;;;;-146.58;100.00;69501.63;5032094;28;20049;-64
2023/06/23 09:26:04;;;;;;;8.50;7.10;;;;;;;-146.58;100.00;69501.63;5033574;28;20053;-64
2023/06/23 09:28:32;;;;;;;12.20;7.72;;;;;;;-146.58;100.00;69501.63;5032638;28;20037;-64
2023/06/23 09:31:00;;;;;;;16.23;7.57;;;;;;;-146.58;100.00;69501.63;5032186;28;20029;-64
2023/06/23 09:33:26;;;;;;;9.50;8.27;;;;;;;-146.58;100.00;69501.63;5032596;28;20033;-64
2023/06/23 09:35:54;;;;;;;11.52;6.05;;;;;;;-146.58;100.00;69501.63;5031888;28;20533;-64
2023/06/23 09:38:24;;;;;;;21.85;8.35;;;;;;;-146.58;100.00;69501.63;5033467;28;20065;-64
2023/06/23 09:41:20;;;;;;;10.77;6.38;;;;;;;-146.58;100.00;69501.63;5032161;28;20151;-64
2023/06/23 09:43:53;;;;;;;17.95;6.55;;;;;;;-146.58;100.00;69501.63;5031713;28;20045;-64
2023/06/23 09:46:22;;;;;;;8.68;7.47;;;;;;;-146.58;100.00;69501.63;5033162;28;20029;-64
2023/06/23 09:48:51;;;;;;;9.60;7.78;;;;;;;-146.58;100.00;69501.63;5030753;28;20076;-65
2023/06/23 09:51:20;;;;;;;11.05;7.82;;;;;;;-146.58;100.00;69501.63;5033565;28;20017;-64
2023/06/23 09:53:47;;;;;;;7.32;6.18;;;;;;;-146.58;100.00;69501.63;5031366;28;20029;-64
2023/06/23 09:56:15;;;;;;;5.57;4.83;;;;;;;-146.58;100.00;69501.63;5033533;28;20026;-63
2023/06/23 09:58:41;;;;;;;;;;;;;;;-146.58;100.00;69501.63;5033972;28;20021;-64
2023/06/23 10:01:09;;;;;;;6.00;4.88;;;;;;;-146.58;100.00;69501.63;5030292;28;20012;-64
2023/06/23 10:03:49;;;;;;;6.40;4.80;;;;;;;-146.58;100.00;69501.63;5033356;28;20115;-64
2023/06/23 10:06:31;;;;;;;7.38;6.00;;;;;;;-146.58;100.00;69501.63;5009312;28;20045;-64
2023/06/23 10:08:58;;;;;;;11.90;5.40;;;;;;;-146.58;100.00;69501.63;5010305;28;20045;-64
2023/06/23 10:11:31;;;;;;;9.48;5.18;;;;;;;-146.58;100.00;69501.63;5012759;28;20134;-64
2023/06/23 10:14:05;;;;;;;8.07;4.97;;;;;;;-146.58;100.00;69501.63;5012978;28;20060;-64
2023/06/23 10:16:31;;;;;;;5.53;4.60;;;;;;;-146.58;100.00;69501.63;5014940;28;20030;-64
2023/06/23 10:18:56;;;;;;;5.57;3.80;;;;;;;-146.58;100.00;69501.63;5017187;28;20040;-64
2023/06/23 10:21:23;;;;;;;7.55;4.68;;;;;;;-146.58;100.00;69501.63;5027998;28;20025;-64
2023/06/23 10:23:50;;;;;;;5.75;3.60;;;;;;;-146.58;100.00;69501.63;5027209;28;20484;-64
2023/06/23 10:26:17;;;;;;;17.35;5.18;;;;;;;-146.58;100.00;69501.63;5026802;28;20062;-64
2023/06/23 10:28:46;;;;;;;4.90;3.50;;;;;;;-146.58;100.00;69501.63;5016807;28;20112;-64
2023/06/23 10:31:12;;;;;;;5.18;3.55;;;;;;;-146.58;100.00;69501.63;5030971;28;20429;-62
2023/06/23 10:33:40;;;;;;;5.35;4.00;;;;;;;-146.58;100.00;69501.63;5031353;28;20053;-62
2023/06/23 10:36:06;;;;;;;;;;;;;;;-146.58;100.00;69501.63;5032177;28;20545;-62
2023/06/23 10:38:33;;;;;;;5.18;2.58;;;;;;;-146.58;100.00;69501.63;5030932;28;20371;-62
2023/06/23 10:41:00;;;;;;;3.83;3.30;;;;;;;-146.58;100.00;69501.63;5027540;28;20380;-63
2023/06/23 10:43:30;;;;;;;5.32;3.25;;;;;;;-146.58;100.00;69501.63;5043514;28;20033;-64
2023/06/23 10:45:56;;;;;;;3.45;3.05;;;;;;;-146.58;100.00;69501.63;5050514;28;20025;-63
2023/06/23 10:48:23;;;;;;;4.50;3.67;;;;;;;-146.58;100.00;69501.63;5030236;28;20065;-63
2023/06/23 10:50:48;;;;;;;4.03;3.28;;;;;;;-146.58;100.00;69501.63;5032270;28;20476;-64
2023/06/23 10:53:18;;;;;;;4.63;3.90;;;;;;;-146.58;100.00;69501.63;5030046;28;20029;-64
2023/06/23 10:55:48;;;;;;;3.67;3.03;;;;;;;-146.58;100.00;69501.63;5032139;28;20404;-64
2023/06/23 10:58:18;;;;;;;6.00;3.60;;;;;;;-146.58;100.00;69501.63;5028782;28;20028;-65
2023/06/23 11:01:00;;;;;;;4.25;3.85;;;;;;;-146.58;100.00;69501.63;5011784;28;20040;-65